Terminal Aerodrome Forecast
Issued by NWS

Home | Current Version | Previous Version | Text Only | Print | Product List | Glossary On
Versions: 1 2 3 4 5 6 7 8 9 10 11 12 13
000
FTUS45 KGJT 231120
TAFEGE
TAF
KEGE 231120Z 2312/2412 00000KT P6SM FEW150 SCT250
     FM231900 25008G18KT P6SM BKN120
     FM240000 25007KT P6SM BKN140
     FM240300 10004KT P6SM BKN130
      AMD LTD TO CLD VIS AND WIND TIL 231400=

USA.gov is the U.S. government's official web portal to all federal, state and local government web resources and services.